sensor_id;sensor_type;location;lat;lon;timestamp;P1;durP1;ratioP1;P2;durP2;ratioP2
57263;SDS011;43113;53.124;6.092;2022-12-18T00:02:23;47.57;;;16.80;;
57263;SDS011;43113;53.124;6.092;2022-12-18T00:04:48;44.83;;;16.57;;
57263;SDS011;43113;53.124;6.092;2022-12-18T00:07:14;54.47;;;18.00;;
57263;SDS011;43113;53.124;6.092;2022-12-18T00:09:40;51.73;;;16.00;;
57263;SDS011;43113;53.124;6.092;2022-12-18T00:12:06;47.23;;;17.77;;
57263;SDS011;43113;53.124;6.092;2022-12-18T00:14:32;48.50;;;17.10;;
57263;SDS011;43113;53.124;6.092;2022-12-18T00:16:58;48.23;;;16.40;;
57263;SDS011;43113;53.124;6.092;2022-12-18T00:19:25;45.80;;;16.50;;
57263;SDS011;43113;53.124;6.092;2022-12-18T00:21:51;50.97;;;17.13;;
57263;SDS011;43113;53.124;6.092;2022-12-18T00:24:17;51.07;;;18.03;;
57263;SDS011;43113;53.124;6.092;2022-12-18T00:26:43;47.20;;;17.50;;
57263;SDS011;43113;53.124;6.092;2022-12-18T00:29:10;55.83;;;17.50;;
57263;SDS011;43113;53.124;6.092;2022-12-18T00:31:39;59.20;;;17.87;;
57263;SDS011;43113;53.124;6.092;2022-12-18T00:34:05;53.63;;;16.53;;
57263;SDS011;43113;53.124;6.092;2022-12-18T00:36:32;45.73;;;16.43;;
57263;SDS011;43113;53.124;6.092;2022-12-18T00:39:00;53.70;;;18.27;;
57263;SDS011;43113;53.124;6.092;2022-12-18T00:41:28;51.47;;;16.93;;
57263;SDS011;43113;53.124;6.092;2022-12-18T00:44:13;53.83;;;17.63;;
57263;SDS011;43113;53.124;6.092;2022-12-18T00:46:42;50.27;;;18.27;;
57263;SDS011;43113;53.124;6.092;2022-12-18T00:49:08;46.70;;;17.30;;
57263;SDS011;43113;53.124;6.092;2022-12-18T00:51:34;51.80;;;17.63;;
57263;SDS011;43113;53.124;6.092;2022-12-18T00:54:00;62.47;;;18.67;;
57263;SDS011;43113;53.124;6.092;2022-12-18T00:56:26;45.30;;;16.60;;
57263;SDS011;43113;53.124;6.092;2022-12-18T00:58:52;54.20;;;15.30;;
57263;SDS011;43113;53.124;6.092;2022-12-18T01:01:18;46.00;;;14.40;;
57263;SDS011;43113;53.124;6.092;2022-12-18T01:03:44;55.77;;;18.23;;
57263;SDS011;43113;53.124;6.092;2022-12-18T01:06:12;57.07;;;16.17;;
57263;SDS011;43113;53.124;6.092;2022-12-18T01:08:39;46.97;;;14.60;;
57263;SDS011;43113;53.124;6.092;2022-12-18T01:11:12;50.93;;;15.57;;
57263;SDS011;43113;53.124;6.092;2022-12-18T01:13:40;47.17;;;16.77;;
57263;SDS011;43113;53.124;6.092;2022-12-18T01:16:06;54.70;;;16.50;;
57263;SDS011;43113;53.124;6.092;2022-12-18T01:18:33;53.97;;;16.93;;
57263;SDS011;43113;53.124;6.092;2022-12-18T01:20:59;46.87;;;16.23;;
57263;SDS011;43113;53.124;6.092;2022-12-18T01:23:25;53.63;;;17.07;;
57263;SDS011;43113;53.124;6.092;2022-12-18T01:25:51;43.70;;;15.57;;
57263;SDS011;43113;53.124;6.092;2022-12-18T01:28:17;47.93;;;15.03;;
57263;SDS011;43113;53.124;6.092;2022-12-18T01:30:42;47.20;;;15.80;;
57263;SDS011;43113;53.124;6.092;2022-12-18T01:33:08;49.50;;;16.80;;
57263;SDS011;43113;53.124;6.092;2022-12-18T01:35:39;42.00;;;15.07;;
57263;SDS011;43113;53.124;6.092;2022-12-18T01:38:07;42.70;;;14.90;;
57263;SDS011;43113;53.124;6.092;2022-12-18T01:40:33;48.90;;;15.27;;
57263;SDS011;43113;53.124;6.092;2022-12-18T01:42:59;50.80;;;16.10;;
57263;SDS011;43113;53.124;6.092;2022-12-18T01:45:26;44.83;;;15.40;;
57263;SDS011;43113;53.124;6.092;2022-12-18T01:47:54;44.40;;;14.13;;
57263;SDS011;43113;53.124;6.092;2022-12-18T01:50:32;41.20;;;14.93;;
57263;SDS011;43113;53.124;6.092;2022-12-18T01:55:43;42.50;;;12.87;;
57263;SDS011;43113;53.124;6.092;2022-12-18T01:58:30;47.63;;;16.73;;
57263;SDS011;43113;53.124;6.092;2022-12-18T02:00:57;43.30;;;14.60;;
57263;SDS011;43113;53.124;6.092;2022-12-18T02:03:23;36.87;;;13.30;;
57263;SDS011;43113;53.124;6.092;2022-12-18T02:11:11;41.17;;;12.60;;
57263;SDS011;43113;53.124;6.092;2022-12-18T02:16:25;42.07;;;14.93;;
57263;SDS011;43113;53.124;6.092;2022-12-18T02:19:06;51.03;;;15.20;;
57263;SDS011;43113;53.124;6.092;2022-12-18T02:21:50;44.63;;;14.53;;
57263;SDS011;43113;53.124;6.092;2022-12-18T02:24:37;39.40;;;13.33;;
57263;SDS011;43113;53.124;6.092;2022-12-18T02:27:17;44.90;;;14.50;;
57263;SDS011;43113;53.124;6.092;2022-12-18T02:29:45;44.93;;;14.40;;
57263;SDS011;43113;53.124;6.092;2022-12-18T02:32:16;41.27;;;14.63;;
57263;SDS011;43113;53.124;6.092;2022-12-18T02:34:46;42.27;;;15.57;;
57263;SDS011;43113;53.124;6.092;2022-12-18T02:37:14;42.03;;;15.33;;
57263;SDS011;43113;53.124;6.092;2022-12-18T02:39:42;43.60;;;16.43;;
57263;SDS011;43113;53.124;6.092;2022-12-18T02:42:09;52.67;;;15.83;;
57263;SDS011;43113;53.124;6.092;2022-12-18T02:44:46;46.03;;;17.13;;
57263;SDS011;43113;53.124;6.092;2022-12-18T02:47:14;46.47;;;15.87;;
57263;SDS011;43113;53.124;6.092;2022-12-18T02:49:44;42.57;;;14.67;;
57263;SDS011;43113;53.124;6.092;2022-12-18T02:52:31;49.53;;;15.40;;
57263;SDS011;43113;53.124;6.092;2022-12-18T03:00:42;48.27;;;17.10;;
57263;SDS011;43113;53.124;6.092;2022-12-18T03:03:19;43.95;;;17.52;;
57263;SDS011;43113;53.124;6.092;2022-12-18T03:06:05;45.17;;;16.70;;
57263;SDS011;43113;53.124;6.092;2022-12-18T03:08:37;52.00;;;16.20;;
57263;SDS011;43113;53.124;6.092;2022-12-18T03:11:09;49.63;;;15.17;;
57263;SDS011;43113;53.124;6.092;2022-12-18T03:13:47;49.50;;;16.57;;
57263;SDS011;43113;53.124;6.092;2022-12-18T03:16:21;43.73;;;16.57;;
57263;SDS011;43113;53.124;6.092;2022-12-18T03:21:51;42.50;;;15.15;;
57263;SDS011;43113;53.124;6.092;2022-12-18T03:24:20;43.73;;;16.40;;
57263;SDS011;43113;53.124;6.092;2022-12-18T03:26:50;44.93;;;16.40;;
57263;SDS011;43113;53.124;6.092;2022-12-18T03:29:27;44.07;;;15.43;;
57263;SDS011;43113;53.124;6.092;2022-12-18T03:31:55;38.22;;;15.15;;
57263;SDS011;43113;53.124;6.092;2022-12-18T03:34:28;56.47;;;16.60;;
57263;SDS011;43113;53.124;6.092;2022-12-18T03:36:57;49.63;;;15.67;;
57263;SDS011;43113;53.124;6.092;2022-12-18T03:39:23;50.40;;;18.50;;
57263;SDS011;43113;53.124;6.092;2022-12-18T03:41:55;43.33;;;15.30;;
57263;SDS011;43113;53.124;6.092;2022-12-18T03:44:30;48.37;;;17.13;;
57263;SDS011;43113;53.124;6.092;2022-12-18T03:47:16;48.83;;;14.73;;
57263;SDS011;43113;53.124;6.092;2022-12-18T03:49:51;46.50;;;16.07;;
57263;SDS011;43113;53.124;6.092;2022-12-18T03:52:26;50.57;;;17.70;;
57263;SDS011;43113;53.124;6.092;2022-12-18T03:55:00;47.07;;;16.20;;
57263;SDS011;43113;53.124;6.092;2022-12-18T03:57:28;53.30;;;17.30;;
57263;SDS011;43113;53.124;6.092;2022-12-18T04:00:00;47.30;;;15.27;;
57263;SDS011;43113;53.124;6.092;2022-12-18T04:02:32;45.17;;;15.30;;
57263;SDS011;43113;53.124;6.092;2022-12-18T04:05:00;57.47;;;16.00;;
57263;SDS011;43113;53.124;6.092;2022-12-18T04:07:29;47.03;;;16.43;;
57263;SDS011;43113;53.124;6.092;2022-12-18T04:09:56;50.30;;;15.80;;
57263;SDS011;43113;53.124;6.092;2022-12-18T04:12:24;46.10;;;16.73;;
57263;SDS011;43113;53.124;6.092;2022-12-18T04:14:51;53.03;;;18.83;;
57263;SDS011;43113;53.124;6.092;2022-12-18T04:17:17;45.87;;;15.27;;
57263;SDS011;43113;53.124;6.092;2022-12-18T04:19:46;50.53;;;16.53;;
57263;SDS011;43113;53.124;6.092;2022-12-18T04:22:12;46.40;;;17.53;;
57263;SDS011;43113;53.124;6.092;2022-12-18T04:24:40;53.60;;;17.17;;
57263;SDS011;43113;53.124;6.092;2022-12-18T04:27:06;46.33;;;16.20;;
57263;SDS011;43113;53.124;6.092;2022-12-18T04:29:32;43.07;;;15.10;;
57263;SDS011;43113;53.124;6.092;2022-12-18T04:31:58;49.93;;;17.57;;
57263;SDS011;43113;53.124;6.092;2022-12-18T04:34:24;47.77;;;16.13;;
57263;SDS011;43113;53.124;6.092;2022-12-18T04:36:49;52.17;;;16.27;;
57263;SDS011;43113;53.124;6.092;2022-12-18T04:39:19;54.93;;;17.43;;
57263;SDS011;43113;53.124;6.092;2022-12-18T04:41:44;40.47;;;14.37;;
57263;SDS011;43113;53.124;6.092;2022-12-18T04:44:10;40.60;;;14.40;;
57263;SDS011;43113;53.124;6.092;2022-12-18T04:46:36;43.43;;;17.07;;
57263;SDS011;43113;53.124;6.092;2022-12-18T04:49:02;50.20;;;16.93;;
57263;SDS011;43113;53.124;6.092;2022-12-18T04:51:30;53.37;;;17.83;;
57263;SDS011;43113;53.124;6.092;2022-12-18T04:53:56;47.20;;;17.17;;
57263;SDS011;43113;53.124;6.092;2022-12-18T04:56:21;45.63;;;16.97;;
57263;SDS011;43113;53.124;6.092;2022-12-18T04:58:47;48.17;;;16.57;;
57263;SDS011;43113;53.124;6.092;2022-12-18T05:01:14;45.27;;;17.80;;
57263;SDS011;43113;53.124;6.092;2022-12-18T05:03:41;38.67;;;13.77;;
57263;SDS011;43113;53.124;6.092;2022-12-18T05:06:07;51.50;;;16.30;;
57263;SDS011;43113;53.124;6.092;2022-12-18T05:08:33;45.10;;;15.83;;
57263;SDS011;43113;53.124;6.092;2022-12-18T05:10:59;42.87;;;15.57;;
57263;SDS011;43113;53.124;6.092;2022-12-18T05:13:30;38.40;;;14.23;;
57263;SDS011;43113;53.124;6.092;2022-12-18T05:15:56;37.20;;;14.63;;
57263;SDS011;43113;53.124;6.092;2022-12-18T05:18:25;43.20;;;16.00;;
57263;SDS011;43113;53.124;6.092;2022-12-18T05:20:52;45.90;;;13.77;;
57263;SDS011;43113;53.124;6.092;2022-12-18T05:23:18;38.73;;;13.33;;
57263;SDS011;43113;53.124;6.092;2022-12-18T05:28:24;43.53;;;14.17;;
57263;SDS011;43113;53.124;6.092;2022-12-18T05:30:53;38.77;;;14.03;;
57263;SDS011;43113;53.124;6.092;2022-12-18T05:33:21;38.33;;;14.50;;
57263;SDS011;43113;53.124;6.092;2022-12-18T05:35:55;40.17;;;13.80;;
57263;SDS011;43113;53.124;6.092;2022-12-18T05:38:23;40.90;;;15.53;;
57263;SDS011;43113;53.124;6.092;2022-12-18T05:40:51;40.20;;;12.70;;
57263;SDS011;43113;53.124;6.092;2022-12-18T05:43:20;38.77;;;14.10;;
57263;SDS011;43113;53.124;6.092;2022-12-18T05:45:47;35.53;;;12.93;;
57263;SDS011;43113;53.124;6.092;2022-12-18T05:48:13;37.77;;;13.40;;
57263;SDS011;43113;53.124;6.092;2022-12-18T05:50:40;32.30;;;12.87;;
57263;SDS011;43113;53.124;6.092;2022-12-18T05:53:07;37.37;;;13.17;;
57263;SDS011;43113;53.124;6.092;2022-12-18T05:55:37;34.30;;;12.40;;
57263;SDS011;43113;53.124;6.092;2022-12-18T05:58:06;30.63;;;12.00;;
57263;SDS011;43113;53.124;6.092;2022-12-18T06:00:34;32.20;;;12.53;;
57263;SDS011;43113;53.124;6.092;2022-12-18T06:03:05;35.27;;;12.70;;
57263;SDS011;43113;53.124;6.092;2022-12-18T06:05:35;34.40;;;13.30;;
57263;SDS011;43113;53.124;6.092;2022-12-18T06:08:05;29.13;;;12.23;;
57263;SDS011;43113;53.124;6.092;2022-12-18T06:10:31;32.17;;;12.20;;
57263;SDS011;43113;53.124;6.092;2022-12-18T06:13:05;35.37;;;12.03;;
57263;SDS011;43113;53.124;6.092;2022-12-18T06:15:35;32.03;;;11.37;;
57263;SDS011;43113;53.124;6.092;2022-12-18T06:18:02;32.77;;;11.20;;
57263;SDS011;43113;53.124;6.092;2022-12-18T06:20:31;34.00;;;11.70;;
57263;SDS011;43113;53.124;6.092;2022-12-18T06:22:58;35.87;;;11.90;;
57263;SDS011;43113;53.124;6.092;2022-12-18T06:25:24;30.37;;;13.87;;
57263;SDS011;43113;53.124;6.092;2022-12-18T06:27:51;32.17;;;12.17;;
57263;SDS011;43113;53.124;6.092;2022-12-18T06:30:20;34.03;;;13.17;;
57263;SDS011;43113;53.124;6.092;2022-12-18T06:32:46;31.70;;;12.40;;
57263;SDS011;43113;53.124;6.092;2022-12-18T06:35:13;35.13;;;12.23;;
57263;SDS011;43113;53.124;6.092;2022-12-18T06:37:39;39.10;;;14.33;;
57263;SDS011;43113;53.124;6.092;2022-12-18T06:40:05;27.60;;;11.00;;
57263;SDS011;43113;53.124;6.092;2022-12-18T06:42:31;32.13;;;11.63;;
57263;SDS011;43113;53.124;6.092;2022-12-18T06:44:58;34.73;;;13.03;;
57263;SDS011;43113;53.124;6.092;2022-12-18T06:47:23;30.37;;;11.70;;
57263;SDS011;43113;53.124;6.092;2022-12-18T06:49:49;30.63;;;12.20;;
57263;SDS011;43113;53.124;6.092;2022-12-18T06:52:15;30.63;;;12.13;;
57263;SDS011;43113;53.124;6.092;2022-12-18T06:54:41;31.33;;;13.67;;
57263;SDS011;43113;53.124;6.092;2022-12-18T06:57:06;32.50;;;13.70;;
57263;SDS011;43113;53.124;6.092;2022-12-18T06:59:32;34.53;;;13.23;;
57263;SDS011;43113;53.124;6.092;2022-12-18T07:01:58;33.10;;;11.90;;
57263;SDS011;43113;53.124;6.092;2022-12-18T07:04:28;27.07;;;10.97;;
57263;SDS011;43113;53.124;6.092;2022-12-18T07:06:55;29.53;;;12.30;;
57263;SDS011;43113;53.124;6.092;2022-12-18T07:09:21;33.33;;;11.33;;
57263;SDS011;43113;53.124;6.092;2022-12-18T07:11:47;32.53;;;11.37;;
57263;SDS011;43113;53.124;6.092;2022-12-18T07:14:12;30.30;;;12.40;;
57263;SDS011;43113;53.124;6.092;2022-12-18T07:16:38;35.10;;;13.23;;
57263;SDS011;43113;53.124;6.092;2022-12-18T07:19:04;33.40;;;11.90;;
57263;SDS011;43113;53.124;6.092;2022-12-18T07:21:29;34.23;;;12.00;;
57263;SDS011;43113;53.124;6.092;2022-12-18T07:23:55;35.33;;;13.13;;
57263;SDS011;43113;53.124;6.092;2022-12-18T07:26:21;32.83;;;11.70;;
57263;SDS011;43113;53.124;6.092;2022-12-18T07:28:47;27.90;;;11.70;;
57263;SDS011;43113;53.124;6.092;2022-12-18T07:31:15;34.00;;;12.40;;
57263;SDS011;43113;53.124;6.092;2022-12-18T07:33:42;38.17;;;12.80;;
57263;SDS011;43113;53.124;6.092;2022-12-18T07:36:12;32.57;;;11.77;;
57263;SDS011;43113;53.124;6.092;2022-12-18T07:38:38;30.07;;;11.00;;
57263;SDS011;43113;53.124;6.092;2022-12-18T07:41:05;30.63;;;12.10;;
57263;SDS011;43113;53.124;6.092;2022-12-18T07:43:37;33.07;;;11.93;;
57263;SDS011;43113;53.124;6.092;2022-12-18T07:46:07;26.97;;;11.17;;
57263;SDS011;43113;53.124;6.092;2022-12-18T07:48:33;28.23;;;11.53;;
57263;SDS011;43113;53.124;6.092;2022-12-18T07:51:00;27.07;;;10.80;;
57263;SDS011;43113;53.124;6.092;2022-12-18T07:53:26;27.73;;;10.90;;
57263;SDS011;43113;53.124;6.092;2022-12-18T07:55:58;30.27;;;10.87;;
57263;SDS011;43113;53.124;6.092;2022-12-18T07:58:25;29.40;;;11.37;;
57263;SDS011;43113;53.124;6.092;2022-12-18T08:00:54;33.10;;;10.73;;
57263;SDS011;43113;53.124;6.092;2022-12-18T08:03:26;30.67;;;11.03;;
57263;SDS011;43113;53.124;6.092;2022-12-18T08:05:58;28.47;;;10.60;;
57263;SDS011;43113;53.124;6.092;2022-12-18T08:08:25;26.67;;;10.23;;
57263;SDS011;43113;53.124;6.092;2022-12-18T08:10:54;23.20;;;9.67;;
57263;SDS011;43113;53.124;6.092;2022-12-18T08:13:20;25.87;;;11.10;;
57263;SDS011;43113;53.124;6.092;2022-12-18T08:15:46;30.47;;;11.23;;
57263;SDS011;43113;53.124;6.092;2022-12-18T08:18:29;30.83;;;10.90;;
57263;SDS011;43113;53.124;6.092;2022-12-18T08:20:55;32.53;;;10.60;;
57263;SDS011;43113;53.124;6.092;2022-12-18T08:23:21;29.60;;;12.93;;
57263;SDS011;43113;53.124;6.092;2022-12-18T08:25:47;26.60;;;11.30;;
57263;SDS011;43113;53.124;6.092;2022-12-18T08:28:13;22.17;;;11.30;;
57263;SDS011;43113;53.124;6.092;2022-12-18T08:30:38;27.17;;;10.00;;
57263;SDS011;43113;53.124;6.092;2022-12-18T08:33:04;27.27;;;9.77;;
57263;SDS011;43113;53.124;6.092;2022-12-18T08:35:34;32.17;;;10.40;;
57263;SDS011;43113;53.124;6.092;2022-12-18T08:38:01;23.53;;;10.37;;
57263;SDS011;43113;53.124;6.092;2022-12-18T08:40:27;28.93;;;11.33;;
57263;SDS011;43113;53.124;6.092;2022-12-18T08:42:52;24.20;;;8.47;;
57263;SDS011;43113;53.124;6.092;2022-12-18T08:45:36;23.77;;;9.67;;
57263;SDS011;43113;53.124;6.092;2022-12-18T08:48:02;27.17;;;9.87;;
57263;SDS011;43113;53.124;6.092;2022-12-18T08:50:28;23.40;;;9.60;;
57263;SDS011;43113;53.124;6.092;2022-12-18T08:52:54;20.77;;;8.27;;
57263;SDS011;43113;53.124;6.092;2022-12-18T08:55:19;23.97;;;9.57;;
57263;SDS011;43113;53.124;6.092;2022-12-18T08:57:47;29.73;;;10.60;;
57263;SDS011;43113;53.124;6.092;2022-12-18T09:00:14;22.37;;;9.80;;
57263;SDS011;43113;53.124;6.092;2022-12-18T09:02:40;23.90;;;9.57;;
57263;SDS011;43113;53.124;6.092;2022-12-18T09:05:06;24.27;;;9.23;;
57263;SDS011;43113;53.124;6.092;2022-12-18T09:07:32;28.47;;;10.83;;
57263;SDS011;43113;53.124;6.092;2022-12-18T09:09:58;20.57;;;9.70;;
57263;SDS011;43113;53.124;6.092;2022-12-18T09:12:24;25.03;;;8.90;;
57263;SDS011;43113;53.124;6.092;2022-12-18T09:14:50;22.43;;;7.77;;
57263;SDS011;43113;53.124;6.092;2022-12-18T09:17:15;21.07;;;8.07;;
57263;SDS011;43113;53.124;6.092;2022-12-18T09:19:41;19.87;;;8.43;;
57263;SDS011;43113;53.124;6.092;2022-12-18T09:22:07;20.60;;;8.67;;
57263;SDS011;43113;53.124;6.092;2022-12-18T09:24:33;18.83;;;8.27;;
57263;SDS011;43113;53.124;6.092;2022-12-18T09:26:58;15.10;;;7.00;;
57263;SDS011;43113;53.124;6.092;2022-12-18T09:29:24;18.30;;;9.27;;
57263;SDS011;43113;53.124;6.092;2022-12-18T09:31:50;20.57;;;8.57;;
57263;SDS011;43113;53.124;6.092;2022-12-18T09:34:15;18.70;;;8.53;;
57263;SDS011;43113;53.124;6.092;2022-12-18T09:36:41;18.20;;;8.73;;
57263;SDS011;43113;53.124;6.092;2022-12-18T09:39:07;21.50;;;8.37;;
57263;SDS011;43113;53.124;6.092;2022-12-18T09:41:36;16.83;;;8.57;;
57263;SDS011;43113;53.124;6.092;2022-12-18T09:44:13;14.67;;;6.90;;
57263;SDS011;43113;53.124;6.092;2022-12-18T09:49:29;18.03;;;8.00;;
57263;SDS011;43113;53.124;6.092;2022-12-18T09:52:01;17.10;;;7.93;;
57263;SDS011;43113;53.124;6.092;2022-12-18T09:54:49;13.30;;;6.73;;
57263;SDS011;43113;53.124;6.092;2022-12-18T09:57:31;12.77;;;6.57;;
57263;SDS011;43113;53.124;6.092;2022-12-18T10:00:06;13.47;;;7.13;;
57263;SDS011;43113;53.124;6.092;2022-12-18T10:02:40;11.47;;;6.77;;
57263;SDS011;43113;53.124;6.092;2022-12-18T10:05:06;14.73;;;5.53;;
57263;SDS011;43113;53.124;6.092;2022-12-18T10:07:49;14.87;;;7.63;;
57263;SDS011;43113;53.124;6.092;2022-12-18T10:10:36;16.30;;;7.53;;
57263;SDS011;43113;53.124;6.092;2022-12-18T10:15:45;14.83;;;6.53;;
57263;SDS011;43113;53.124;6.092;2022-12-18T10:27:14;11.27;;;6.33;;
57263;SDS011;43113;53.124;6.092;2022-12-18T10:32:12;16.93;;;6.70;;
57263;SDS011;43113;53.124;6.092;2022-12-18T10:34:43;16.87;;;6.67;;
57263;SDS011;43113;53.124;6.092;2022-12-18T10:37:12;12.33;;;7.00;;
57263;SDS011;43113;53.124;6.092;2022-12-18T10:39:45;14.57;;;5.67;;
57263;SDS011;43113;53.124;6.092;2022-12-18T10:42:18;15.67;;;7.13;;
57263;SDS011;43113;53.124;6.092;2022-12-18T10:44:45;12.93;;;7.23;;
57263;SDS011;43113;53.124;6.092;2022-12-18T10:47:12;16.33;;;6.90;;
57263;SDS011;43113;53.124;6.092;2022-12-18T10:49:42;11.87;;;5.73;;
57263;SDS011;43113;53.124;6.092;2022-12-18T10:52:20;16.48;;;7.10;;
57263;SDS011;43113;53.124;6.092;2022-12-18T10:54:57;13.50;;;6.73;;
57263;SDS011;43113;53.124;6.092;2022-12-18T10:57:30;12.40;;;6.70;;
57263;SDS011;43113;53.124;6.092;2022-12-18T11:02:52;13.50;;;6.97;;
57263;SDS011;43113;53.124;6.092;2022-12-18T11:05:23;16.37;;;7.27;;
57263;SDS011;43113;53.124;6.092;2022-12-18T11:07:51;17.60;;;6.47;;
57263;SDS011;43113;53.124;6.092;2022-12-18T11:10:19;14.93;;;7.00;;
57263;SDS011;43113;53.124;6.092;2022-12-18T11:12:47;11.93;;;6.13;;
57263;SDS011;43113;53.124;6.092;2022-12-18T11:15:18;11.00;;;6.20;;
57263;SDS011;43113;53.124;6.092;2022-12-18T11:17:49;13.40;;;5.77;;
57263;SDS011;43113;53.124;6.092;2022-12-18T11:20:21;11.90;;;6.37;;
57263;SDS011;43113;53.124;6.092;2022-12-18T11:22:56;10.93;;;5.13;;
57263;SDS011;43113;53.124;6.092;2022-12-18T11:25:25;10.13;;;5.20;;
57263;SDS011;43113;53.124;6.092;2022-12-18T11:28:02;11.20;;;4.90;;
57263;SDS011;43113;53.124;6.092;2022-12-18T11:33:06;11.50;;;5.27;;
57263;SDS011;43113;53.124;6.092;2022-12-18T11:35:51;10.73;;;4.73;;
57263;SDS011;43113;53.124;6.092;2022-12-18T11:38:24;10.00;;;5.20;;
57263;SDS011;43113;53.124;6.092;2022-12-18T11:43:29;9.47;;;5.10;;
57263;SDS011;43113;53.124;6.092;2022-12-18T11:46:17;13.03;;;5.67;;
57263;SDS011;43113;53.124;6.092;2022-12-18T11:49:34;10.57;;;5.23;;
57263;SDS011;43113;53.124;6.092;2022-12-18T11:54:50;11.77;;;5.00;;
57263;SDS011;43113;53.124;6.092;2022-12-18T12:00:21;13.47;;;5.47;;
57263;SDS011;43113;53.124;6.092;2022-12-18T12:19:38;8.87;;;4.73;;
57263;SDS011;43113;53.124;6.092;2022-12-18T12:27:53;10.03;;;4.20;;
57263;SDS011;43113;53.124;6.092;2022-12-18T12:30:50;7.83;;;4.07;;
57263;SDS011;43113;53.124;6.092;2022-12-18T12:35:59;9.23;;;4.60;;
57263;SDS011;43113;53.124;6.092;2022-12-18T12:38:45;7.90;;;3.90;;
57263;SDS011;43113;53.124;6.092;2022-12-18T12:41:17;7.47;;;4.47;;
57263;SDS011;43113;53.124;6.092;2022-12-18T12:44:07;6.57;;;3.30;;
57263;SDS011;43113;53.124;6.092;2022-12-18T12:46:39;5.70;;;3.20;;
57263;SDS011;43113;53.124;6.092;2022-12-18T12:49:17;5.10;;;3.33;;
57263;SDS011;43113;53.124;6.092;2022-12-18T12:51:47;7.73;;;3.47;;
57263;SDS011;43113;53.124;6.092;2022-12-18T12:54:21;8.47;;;3.67;;
57263;SDS011;43113;53.124;6.092;2022-12-18T12:59:45;7.93;;;4.00;;
57263;SDS011;43113;53.124;6.092;2022-12-18T13:02:23;10.03;;;4.00;;
57263;SDS011;43113;53.124;6.092;2022-12-18T13:10:22;7.37;;;3.17;;
57263;SDS011;43113;53.124;6.092;2022-12-18T13:18:21;6.30;;;3.25;;
57263;SDS011;43113;53.124;6.092;2022-12-18T13:25:52;8.37;;;3.47;;
57263;SDS011;43113;53.124;6.092;2022-12-18T13:31:13;6.40;;;3.53;;
57263;SDS011;43113;53.124;6.092;2022-12-18T13:34:07;10.33;;;3.23;;
57263;SDS011;43113;53.124;6.092;2022-12-18T13:36:45;8.97;;;3.07;;
57263;SDS011;43113;53.124;6.092;2022-12-18T13:41:44;6.30;;;3.50;;
57263;SDS011;43113;53.124;6.092;2022-12-18T13:44:31;9.20;;;3.80;;
57263;SDS011;43113;53.124;6.092;2022-12-18T13:47:02;4.80;;;3.17;;
57263;SDS011;43113;53.124;6.092;2022-12-18T13:49:40;4.73;;;2.67;;
57263;SDS011;43113;53.124;6.092;2022-12-18T13:52:19;6.43;;;3.07;;
57263;SDS011;43113;53.124;6.092;2022-12-18T13:55:16;4.43;;;2.77;;
57263;SDS011;43113;53.124;6.092;2022-12-18T13:57:44;7.87;;;3.70;;
57263;SDS011;43113;53.124;6.092;2022-12-18T14:00:23;5.27;;;2.90;;
57263;SDS011;43113;53.124;6.092;2022-12-18T14:02:49;6.40;;;3.50;;
57263;SDS011;43113;53.124;6.092;2022-12-18T14:07:53;6.37;;;2.90;;
57263;SDS011;43113;53.124;6.092;2022-12-18T14:10:25;6.70;;;3.30;;
57263;SDS011;43113;53.124;6.092;2022-12-18T14:12:51;7.20;;;3.17;;
57263;SDS011;43113;53.124;6.092;2022-12-18T14:20:48;9.13;;;3.03;;
57263;SDS011;43113;53.124;6.092;2022-12-18T14:23:30;5.80;;;3.27;;
57263;SDS011;43113;53.124;6.092;2022-12-18T14:26:01;6.80;;;3.47;;
57263;SDS011;43113;53.124;6.092;2022-12-18T14:28:44;10.47;;;3.33;;
57263;SDS011;43113;53.124;6.092;2022-12-18T14:31:17;10.03;;;3.53;;
57263;SDS011;43113;53.124;6.092;2022-12-18T14:33:43;7.37;;;3.33;;
57263;SDS011;43113;53.124;6.092;2022-12-18T14:36:15;4.87;;;2.93;;
57263;SDS011;43113;53.124;6.092;2022-12-18T14:38:43;7.07;;;3.40;;
57263;SDS011;43113;53.124;6.092;2022-12-18T14:41:15;5.47;;;3.20;;
57263;SDS011;43113;53.124;6.092;2022-12-18T14:43:43;6.13;;;3.03;;
57263;SDS011;43113;53.124;6.092;2022-12-18T14:48:58;6.30;;;3.50;;
57263;SDS011;43113;53.124;6.092;2022-12-18T14:51:46;8.43;;;3.47;;
57263;SDS011;43113;53.124;6.092;2022-12-18T14:54:23;6.33;;;3.33;;
57263;SDS011;43113;53.124;6.092;2022-12-18T14:56:51;7.40;;;3.20;;
57263;SDS011;43113;53.124;6.092;2022-12-18T14:59:28;5.00;;;3.13;;
57263;SDS011;43113;53.124;6.092;2022-12-18T15:02:13;8.27;;;3.80;;
57263;SDS011;43113;53.124;6.092;2022-12-18T15:04:45;7.90;;;3.43;;
57263;SDS011;43113;53.124;6.092;2022-12-18T15:07:21;10.37;;;3.87;;
57263;SDS011;43113;53.124;6.092;2022-12-18T15:12:28;8.20;;;3.60;;
57263;SDS011;43113;53.124;6.092;2022-12-18T15:15:01;6.18;;;3.10;;
57263;SDS011;43113;53.124;6.092;2022-12-18T15:17:28;9.10;;;3.70;;
57263;SDS011;43113;53.124;6.092;2022-12-18T15:19:58;8.03;;;3.67;;
57263;SDS011;43113;53.124;6.092;2022-12-18T15:22:27;7.87;;;3.17;;
57263;SDS011;43113;53.124;6.092;2022-12-18T15:24:55;5.73;;;3.37;;
57263;SDS011;43113;53.124;6.092;2022-12-18T15:32:36;6.53;;;3.80;;
57263;SDS011;43113;53.124;6.092;2022-12-18T15:35:08;7.70;;;3.60;;
57263;SDS011;43113;53.124;6.092;2022-12-18T15:37:40;6.43;;;3.43;;
57263;SDS011;43113;53.124;6.092;2022-12-18T15:40:07;8.50;;;3.70;;
57263;SDS011;43113;53.124;6.092;2022-12-18T15:42:37;7.30;;;3.70;;
57263;SDS011;43113;53.124;6.092;2022-12-18T15:45:21;9.17;;;3.60;;
57263;SDS011;43113;53.124;6.092;2022-12-18T15:47:47;7.57;;;3.90;;
57263;SDS011;43113;53.124;6.092;2022-12-18T15:50:13;7.27;;;3.37;;
57263;SDS011;43113;53.124;6.092;2022-12-18T15:52:40;7.60;;;3.50;;
57263;SDS011;43113;53.124;6.092;2022-12-18T15:55:12;10.23;;;4.50;;
57263;SDS011;43113;53.124;6.092;2022-12-18T15:57:57;7.37;;;3.73;;
57263;SDS011;43113;53.124;6.092;2022-12-18T16:00:23;8.60;;;4.03;;
57263;SDS011;43113;53.124;6.092;2022-12-18T16:02:49;7.70;;;3.27;;
57263;SDS011;43113;53.124;6.092;2022-12-18T16:05:15;8.33;;;4.40;;
57263;SDS011;43113;53.124;6.092;2022-12-18T16:07:42;10.87;;;4.30;;
57263;SDS011;43113;53.124;6.092;2022-12-18T16:10:08;7.87;;;4.20;;
57263;SDS011;43113;53.124;6.092;2022-12-18T16:12:34;11.73;;;5.07;;
57263;SDS011;43113;53.124;6.092;2022-12-18T16:15:01;9.13;;;5.20;;
57263;SDS011;43113;53.124;6.092;2022-12-18T16:17:26;10.93;;;4.30;;
57263;SDS011;43113;53.124;6.092;2022-12-18T16:19:52;9.07;;;4.50;;
57263;SDS011;43113;53.124;6.092;2022-12-18T16:22:28;7.10;;;3.77;;
57263;SDS011;43113;53.124;6.092;2022-12-18T16:27:21;9.13;;;4.15;;
57263;SDS011;43113;53.124;6.092;2022-12-18T16:29:50;10.60;;;4.60;;
57263;SDS011;43113;53.124;6.092;2022-12-18T16:32:20;13.73;;;5.70;;
57263;SDS011;43113;53.124;6.092;2022-12-18T16:34:47;7.53;;;4.30;;
57263;SDS011;43113;53.124;6.092;2022-12-18T16:37:14;8.17;;;4.30;;
57263;SDS011;43113;53.124;6.092;2022-12-18T16:39:41;9.03;;;4.13;;
57263;SDS011;43113;53.124;6.092;2022-12-18T16:42:12;7.90;;;4.20;;
57263;SDS011;43113;53.124;6.092;2022-12-18T16:44:41;9.70;;;3.70;;
57263;SDS011;43113;53.124;6.092;2022-12-18T16:47:07;11.37;;;4.37;;
57263;SDS011;43113;53.124;6.092;2022-12-18T16:49:33;10.03;;;4.60;;
57263;SDS011;43113;53.124;6.092;2022-12-18T16:51:59;16.27;;;4.37;;